createdAt,value
2022-10-11T00:00:32.986Z,101987.50
2022-10-11T00:03:01.921Z,101985.63
2022-10-11T00:05:30.381Z,101992.78
2022-10-11T00:07:58.677Z,101991.97
2022-10-11T00:10:27.011Z,101998.38
2022-10-11T00:12:54.899Z,101996.59
2022-10-11T00:15:23.539Z,101999.25
2022-10-11T00:17:52.908Z,102002.06
2022-10-11T00:20:21.126Z,102003.16
2022-10-11T00:22:50.202Z,102011.22
2022-10-11T00:25:18.720Z,102020.22
2022-10-11T00:27:46.870Z,102015.03
2022-10-11T00:30:15.381Z,102016.25
2022-10-11T00:32:43.390Z,102022.47
2022-10-11T00:35:12.571Z,102030.63
2022-10-11T00:37:40.600Z,102028.88
2022-10-11T00:40:13.798Z,102035.16
2022-10-11T00:42:41.716Z,102035.97
2022-10-11T00:45:47.109Z,102040.16
2022-10-11T00:48:22.616Z,102042.88
2022-10-11T00:50:51.991Z,102050.09
2022-10-11T00:53:19.867Z,102051.03
2022-10-11T00:55:52.332Z,102051.28
2022-10-11T00:58:22.274Z,102055.81
2022-10-11T01:00:50.681Z,102052.16
2022-10-11T01:03:21.409Z,102051.28
2022-10-11T01:05:49.833Z,102054.75
2022-10-11T01:08:19.599Z,102048.28
2022-10-11T01:10:47.628Z,102043.50
2022-10-11T01:13:27.343Z,102053.00
2022-10-11T01:16:02.214Z,102049.84
2022-10-11T01:18:36.289Z,102054.28
2022-10-11T01:21:14.443Z,102051.31
2022-10-11T01:24:28.133Z,102064.28
2022-10-11T01:27:32.197Z,102055.66
2022-10-11T01:30:15.872Z,102051.44
2022-10-11T01:32:52.170Z,102061.66
2022-10-11T01:35:25.977Z,102072.56
2022-10-11T01:38:00.888Z,102071.91
2022-10-11T01:40:34.862Z,102068.78
2022-10-11T01:43:04.905Z,102070.78
2022-10-11T01:45:35.677Z,102073.38
2022-10-11T01:48:07.026Z,102079.66
2022-10-11T01:50:41.594Z,102073.59
2022-10-11T01:53:26.358Z,102076.38
2022-10-11T01:55:58.734Z,102077.25
2022-10-11T01:58:43.585Z,102085.47
2022-10-11T02:01:25.620Z,102082.25
2022-10-11T02:04:02.489Z,102090.41
2022-10-11T02:06:36.715Z,102084.31
2022-10-11T02:09:13.301Z,102090.81
2022-10-11T02:11:41.233Z,102084.72
2022-10-11T02:14:12.377Z,102088.34
2022-10-11T02:16:47.496Z,102087.53
2022-10-11T02:19:20.687Z,102088.44
2022-10-11T02:21:54.043Z,102093.03
2022-10-11T02:24:27.230Z,102100.19
2022-10-11T02:26:58.441Z,102094.72
2022-10-11T02:29:30.397Z,102093.78
2022-10-11T02:32:01.612Z,102103.84
2022-10-11T02:34:34.466Z,102099.50
2022-10-11T02:37:07.427Z,102101.09
2022-10-11T02:39:41.010Z,102106.44
2022-10-11T02:42:14.970Z,102108.44
2022-10-11T02:44:46.421Z,102103.28
2022-10-11T02:47:16.130Z,102099.94
2022-10-11T02:49:43.951Z,102102.47
2022-10-11T02:52:11.763Z,102102.91
2022-10-11T02:54:39.620Z,102121.34
2022-10-11T02:57:07.443Z,102118.84
2022-10-11T02:59:35.283Z,102115.88
2022-10-11T03:02:03.199Z,102113.19
2022-10-11T03:04:32.487Z,102114.00
2022-10-11T03:07:00.327Z,102121.91
2022-10-11T03:09:28.273Z,102119.97
2022-10-11T03:11:56.084Z,102132.56
2022-10-11T03:14:25.088Z,102131.81
2022-10-11T03:16:53.043Z,102136.22
2022-10-11T03:19:20.855Z,102141.50
2022-10-11T03:21:50.066Z,102149.31
2022-10-11T03:24:17.975Z,102148.56
2022-10-11T03:26:46.028Z,102145.94
2022-10-11T03:29:13.868Z,102154.81
2022-10-11T03:31:41.740Z,102158.16
2022-10-11T03:34:10.058Z,102161.72
2022-10-11T03:36:38.108Z,102164.81
2022-10-11T03:39:07.547Z,102173.28
2022-10-11T03:41:35.362Z,102186.31
2022-10-11T03:44:03.176Z,102190.28
2022-10-11T03:46:31.621Z,102191.03
2022-10-11T03:48:59.526Z,102192.59
2022-10-11T03:51:27.488Z,102194.25
2022-10-11T03:53:55.470Z,102202.00
2022-10-11T03:56:24.985Z,102191.53
2022-10-11T03:58:52.803Z,102199.56
2022-10-11T04:01:20.883Z,102187.97
2022-10-11T04:03:48.730Z,102193.81
2022-10-11T04:06:16.611Z,102197.66
2022-10-11T04:08:44.657Z,102200.31
2022-10-11T04:11:13.503Z,102196.91
2022-10-11T04:13:42.776Z,102195.19
2022-10-11T04:16:10.739Z,102194.56
2022-10-11T04:18:38.659Z,102202.00
2022-10-11T04:21:06.919Z,102209.59
2022-10-11T04:23:35.392Z,102208.81
2022-10-11T04:26:07.444Z,102218.84
2022-10-11T04:28:36.638Z,102220.59
2022-10-11T04:31:07.836Z,102219.81
2022-10-11T04:33:35.903Z,102216.38
2022-10-11T04:36:04.493Z,102217.47
2022-10-11T04:38:32.584Z,102225.50
2022-10-11T04:41:08.098Z,102228.13
2022-10-11T04:43:36.202Z,102237.97
2022-10-11T04:46:06.122Z,102233.56
2022-10-11T04:48:34.680Z,102235.59
2022-10-11T04:51:02.577Z,102235.53
2022-10-11T04:53:30.527Z,102239.09
2022-10-11T04:56:01.654Z,102246.31
2022-10-11T04:58:30.411Z,102242.84
2022-10-11T05:00:58.301Z,102250.25
2022-10-11T05:03:28.352Z,102249.22
2022-10-11T05:05:56.359Z,102258.03
2022-10-11T05:08:24.757Z,102258.03
2022-10-11T05:10:58.154Z,102263.34
2022-10-11T05:13:26.584Z,102254.59
2022-10-11T05:15:54.848Z,102260.75
2022-10-11T05:18:22.982Z,102259.06
2022-10-11T05:20:59.928Z,102270.53
2022-10-11T05:23:28.240Z,102276.75
2022-10-11T05:25:56.069Z,102280.25
2022-10-11T05:28:24.108Z,102285.66
2022-10-11T05:30:52.150Z,102286.53
2022-10-11T05:33:20.004Z,102289.19
2022-10-11T05:35:47.896Z,102288.38
2022-10-11T05:38:17.291Z,102300.75
2022-10-11T05:40:45.223Z,102299.84
2022-10-11T05:43:13.398Z,102310.34
2022-10-11T05:45:44.257Z,102316.44
2022-10-11T05:48:12.712Z,102312.09
2022-10-11T05:50:40.628Z,102323.59
2022-10-11T05:53:08.547Z,102317.31
2022-10-11T05:55:39.180Z,102328.66
2022-10-11T05:58:08.539Z,102324.97
2022-10-11T06:00:38.017Z,102328.53
2022-10-11T06:03:06.864Z,102322.09
2022-10-11T06:05:36.195Z,102328.88
2022-10-11T06:08:04.081Z,102327.78
2022-10-11T06:10:31.943Z,102335.78
2022-10-11T06:13:01.394Z,102334.75
2022-10-11T06:15:29.418Z,102340.97
2022-10-11T06:17:58.000Z,102348.97
2022-10-11T06:20:26.157Z,102348.09
2022-10-11T06:22:54.199Z,102353.28
2022-10-11T06:25:22.108Z,102351.16
2022-10-11T06:27:50.077Z,102359.09
2022-10-11T06:30:19.370Z,102356.97
2022-10-11T06:32:47.402Z,102362.16
2022-10-11T06:35:15.328Z,102357.56
2022-10-11T06:37:43.182Z,102363.88
2022-10-11T06:40:12.235Z,102368.09
2022-10-11T06:42:40.164Z,102373.31
2022-10-11T06:45:09.237Z,102367.75
2022-10-11T06:47:38.432Z,102375.63
2022-10-11T06:50:07.001Z,102375.63
2022-10-11T06:52:34.907Z,102373.69
2022-10-11T06:55:02.737Z,102365.56
2022-10-11T06:57:30.622Z,102374.31
2022-10-11T06:59:58.569Z,102374.84
2022-10-11T07:02:26.436Z,102380.28
2022-10-11T07:04:55.821Z,102380.09
2022-10-11T07:07:23.695Z,102381.59
2022-10-11T07:09:51.517Z,102385.09
2022-10-11T07:12:19.529Z,102389.13
2022-10-11T07:14:47.401Z,102398.97
2022-10-11T07:17:15.276Z,102395.41
2022-10-11T07:19:43.199Z,102398.59
2022-10-11T07:22:12.458Z,102403.19
2022-10-11T07:24:40.283Z,102406.41
2022-10-11T07:27:08.261Z,102409.34
2022-10-11T07:29:36.125Z,102402.16
2022-10-11T07:32:04.082Z,102414.31
2022-10-11T07:34:32.041Z,102411.75
2022-10-11T07:36:59.866Z,102405.47
2022-10-11T07:39:30.973Z,102405.47
2022-10-11T07:41:59.352Z,102411.50
2022-10-11T07:44:27.488Z,102410.53
2022-10-11T07:46:55.498Z,102415.56
2022-10-11T07:49:23.569Z,102412.50
2022-10-11T07:51:51.408Z,102424.44
2022-10-11T07:54:19.434Z,102415.13
2022-10-11T07:56:48.997Z,102424.44
2022-10-11T07:59:16.874Z,102420.88
2022-10-11T08:01:44.755Z,102434.19
2022-10-11T08:04:12.913Z,102434.94
2022-10-11T08:06:40.931Z,102434.38
2022-10-11T08:09:09.334Z,102426.09
2022-10-11T08:11:38.942Z,102441.69
2022-10-11T08:14:11.326Z,102448.91
2022-10-11T08:16:40.962Z,102442.56
2022-10-11T08:19:09.102Z,102445.09
2022-10-11T08:21:37.278Z,102444.94
2022-10-11T08:24:07.019Z,102442.81
2022-10-11T08:26:35.479Z,102446.28
2022-10-11T08:29:04.028Z,102446.09
2022-10-11T08:31:34.417Z,102451.56
2022-10-11T08:34:02.784Z,102455.84
2022-10-11T08:36:30.620Z,102460.88
2022-10-11T08:38:58.617Z,102458.66
2022-10-11T08:41:30.824Z,102456.50
2022-10-11T08:44:15.717Z,102459.31
2022-10-11T08:46:50.054Z,102458.00
2022-10-11T08:49:20.520Z,102453.88
2022-10-11T08:51:52.160Z,102453.78
2022-10-11T08:54:24.417Z,102456.34
2022-10-11T08:56:52.756Z,102458.00
2022-10-11T08:59:30.293Z,102460.69
2022-10-11T09:02:05.075Z,102456.72
2022-10-11T09:04:33.522Z,102460.78
2022-10-11T09:07:08.459Z,102460.34
2022-10-11T09:10:02.523Z,102459.16
2022-10-11T09:12:41.161Z,102460.22
2022-10-11T09:15:19.152Z,102465.16
2022-10-11T09:18:03.300Z,102466.81
2022-10-11T09:20:53.198Z,102457.03
2022-10-11T09:23:39.597Z,102462.84
2022-10-11T09:26:13.448Z,102471.88
2022-10-11T09:28:51.734Z,102472.84
2022-10-11T09:31:19.941Z,102467.25
2022-10-11T09:33:51.216Z,102474.56
2022-10-11T09:36:29.833Z,102474.28
2022-10-11T09:39:08.579Z,102467.69
2022-10-11T09:41:42.787Z,102463.03
2022-10-11T09:44:21.862Z,102468.06
2022-10-11T09:46:51.067Z,102478.44
2022-10-11T09:49:22.776Z,102472.88
2022-10-11T09:51:54.923Z,102466.09
2022-10-11T09:54:28.152Z,102472.75
2022-10-11T09:56:56.217Z,102480.09
2022-10-11T09:59:29.039Z,102470.78
2022-10-11T10:02:27.390Z,102473.25
2022-10-11T10:05:17.351Z,102474.22
2022-10-11T10:08:05.118Z,102484.41
2022-10-11T10:10:38.703Z,102477.13
2022-10-11T10:13:18.124Z,102482.09
2022-10-11T10:15:48.190Z,102483.31
2022-10-11T10:18:23.874Z,102492.09
2022-10-11T10:20:56.099Z,102486.50
2022-10-11T10:23:27.811Z,102485.53
2022-10-11T10:26:12.502Z,102484.31
2022-10-11T10:28:55.032Z,102482.22
2022-10-11T10:31:24.638Z,102489.50
2022-10-11T10:33:55.665Z,102489.34
2022-10-11T10:36:29.904Z,102489.25
2022-10-11T10:39:02.914Z,102494.00
2022-10-11T10:41:31.055Z,102495.31
2022-10-11T10:44:01.162Z,102495.44
2022-10-11T10:46:46.451Z,102493.94
2022-10-11T10:49:41.599Z,102498.13
2022-10-11T10:52:30.654Z,102500.56
2022-10-11T10:55:04.815Z,102490.66
2022-10-11T10:57:42.168Z,102484.06
2022-10-11T11:00:16.935Z,102481.31
2022-10-11T11:02:51.303Z,102492.31
2022-10-11T11:05:28.638Z,102487.66
2022-10-11T11:08:09.157Z,102488.13
2022-10-11T11:10:42.126Z,102492.22
2022-10-11T11:13:20.878Z,102491.88
2022-10-11T11:15:59.436Z,102497.25
2022-10-11T11:18:36.920Z,102496.75
2022-10-11T11:21:24.554Z,102497.13
2022-10-11T11:24:00.361Z,102495.97
2022-10-11T11:26:37.822Z,102506.97
2022-10-11T11:29:22.537Z,102499.13
2022-10-11T11:32:12.010Z,102505.09
2022-10-11T11:34:45.517Z,102503.72
2022-10-11T11:37:24.623Z,102500.16
2022-10-11T11:39:58.294Z,102501.28
2022-10-11T11:42:31.110Z,102498.38
2022-10-11T11:45:05.390Z,102499.59
2022-10-11T11:47:37.882Z,102504.91
2022-10-11T11:50:22.726Z,102501.22
2022-10-11T11:52:53.869Z,102504.13
2022-10-11T11:55:31.073Z,102499.91
2022-10-11T11:58:08.697Z,102499.03
2022-10-11T12:00:43.469Z,102493.56
2022-10-11T12:03:16.836Z,102491.88
2022-10-11T12:06:20.715Z,102492.66
2022-10-11T12:08:50.558Z,102499.16
2022-10-11T12:11:25.169Z,102505.97
2022-10-11T12:13:55.063Z,102506.69
2022-10-11T12:16:23.464Z,102506.59
2022-10-11T12:18:55.845Z,102509.25
2022-10-11T12:21:30.961Z,102504.69
2022-10-11T12:24:00.182Z,102499.81
2022-10-11T12:26:44.328Z,102500.84
2022-10-11T12:29:29.071Z,102495.34
2022-10-11T12:32:55.102Z,102498.81
2022-10-11T12:36:08.259Z,102488.81
2022-10-11T12:38:41.910Z,102493.31
2022-10-11T12:41:53.825Z,102492.06
2022-10-11T12:44:24.622Z,102488.47
2022-10-11T12:47:26.862Z,102487.88
2022-10-11T12:50:11.685Z,102484.13
2022-10-11T12:52:51.196Z,102487.50
2022-10-11T12:55:39.648Z,102485.88
2022-10-11T12:58:28.309Z,102480.03
2022-10-11T13:01:17.556Z,102485.88
2022-10-11T13:03:49.392Z,102482.75
2022-10-11T13:06:20.669Z,102488.84
2022-10-11T13:08:53.379Z,102482.13
2022-10-11T13:11:23.658Z,102479.63
2022-10-11T13:13:56.184Z,102490.13
2022-10-11T13:16:26.000Z,102490.50
2022-10-11T13:18:58.231Z,102477.34
2022-10-11T13:21:31.986Z,102483.13
2022-10-11T13:24:02.622Z,102481.09
2022-10-11T13:26:32.645Z,102473.91
2022-10-11T13:29:02.085Z,102472.66
2022-10-11T13:31:30.192Z,102468.25
2022-10-11T13:34:00.352Z,102468.59
2022-10-11T13:36:28.884Z,102465.78
2022-10-11T13:39:00.006Z,102471.88
2022-10-11T13:41:30.686Z,102477.72
2022-10-11T13:44:01.216Z,102471.84
2022-10-11T13:46:31.764Z,102471.72
2022-10-11T13:49:01.441Z,102469.84
2022-10-11T13:51:32.784Z,102463.59
2022-10-11T13:54:03.723Z,102465.59
2022-10-11T13:56:36.054Z,102466.84
2022-10-11T13:59:05.809Z,102469.47
2022-10-11T14:01:40.732Z,102470.50
2022-10-11T14:04:11.308Z,102472.06
2022-10-11T14:06:45.424Z,102474.19
2022-10-11T14:09:20.932Z,102473.69
2022-10-11T14:11:51.132Z,102461.59
2022-10-11T14:14:48.841Z,102462.66
2022-10-11T14:17:19.664Z,102470.84
2022-10-11T14:19:49.674Z,102458.09
2022-10-11T14:22:18.877Z,102453.00
2022-10-11T14:24:49.387Z,102466.56
2022-10-11T14:27:23.473Z,102467.34
2022-10-11T14:30:24.103Z,102471.13
2022-10-11T14:32:47.420Z,102468.38
2022-10-11T14:35:18.181Z,102467.50
2022-10-11T14:37:46.568Z,102473.22
2022-10-11T14:40:17.367Z,102471.13
2022-10-11T14:42:45.393Z,102473.78
2022-10-11T14:45:15.010Z,102476.66
2022-10-11T14:47:43.383Z,102487.09
2022-10-11T14:50:36.595Z,102480.94
2022-10-11T14:53:05.903Z,102488.41
2022-10-11T14:55:33.865Z,102483.38
2022-10-11T14:58:01.922Z,102480.34
2022-10-11T15:00:33.183Z,102476.97
2022-10-11T15:03:01.200Z,102477.66
2022-10-11T15:05:33.938Z,102480.53
2022-10-11T15:08:02.511Z,102475.25
2022-10-11T15:10:34.732Z,102483.91
2022-10-11T15:13:03.470Z,102484.16
2022-10-11T15:15:35.665Z,102479.66
2022-10-11T15:18:05.711Z,102480.44
2022-10-11T15:20:36.618Z,102478.44
2022-10-11T15:23:06.518Z,102490.16
2022-10-11T15:25:34.737Z,102483.63
2022-10-11T15:28:02.786Z,102478.34
2022-10-11T15:30:38.543Z,102478.34
2022-10-11T15:33:08.131Z,102477.31
2022-10-11T15:35:36.112Z,102482.41
2022-10-11T15:38:04.043Z,102486.16
2022-10-11T15:40:34.858Z,102488.16
2022-10-11T15:43:03.162Z,102490.22
2022-10-11T15:45:32.961Z,102488.22
2022-10-11T15:48:00.866Z,102485.38
2022-10-11T15:50:37.987Z,102484.50
2022-10-11T15:53:07.928Z,102488.06
2022-10-11T15:55:39.668Z,102492.00
2022-10-11T15:58:07.907Z,102486.69
2022-10-11T16:00:37.179Z,102492.22
2022-10-11T16:03:06.045Z,102492.56
2022-10-11T16:05:34.041Z,102489.94
2022-10-11T16:08:02.006Z,102484.25
2022-10-11T16:10:30.053Z,102495.06
2022-10-11T16:12:58.202Z,102496.97
2022-10-11T16:15:26.300Z,102502.19
2022-10-11T16:17:55.876Z,102502.63
2022-10-11T16:20:25.689Z,102506.78
2022-10-11T16:22:55.656Z,102510.19
2022-10-11T16:25:24.074Z,102510.38
2022-10-11T16:27:52.815Z,102516.53
2022-10-11T16:30:21.656Z,102507.03
2022-10-11T16:32:49.604Z,102510.78
2022-10-11T16:35:18.946Z,102516.16
2022-10-11T16:37:47.100Z,102521.53
2022-10-11T16:40:17.636Z,102516.16
2022-10-11T16:42:46.643Z,102518.22
2022-10-11T16:45:16.177Z,102514.84
2022-10-11T16:47:45.199Z,102522.06
2022-10-11T16:50:14.129Z,102522.06
2022-10-11T16:52:43.428Z,102515.25
2022-10-11T16:55:11.577Z,102512.75
2022-10-11T16:57:39.824Z,102512.91
2022-10-11T17:00:09.925Z,102518.22
2022-10-11T17:02:38.051Z,102511.59
2022-10-11T17:05:06.773Z,102522.69
2022-10-11T17:07:34.672Z,102514.94
2022-10-11T17:10:06.433Z,102522.84
2022-10-11T17:12:37.218Z,102516.66
2022-10-11T17:15:06.884Z,102507.06
2022-10-11T17:17:35.415Z,102511.56
2022-10-11T17:20:03.666Z,102507.22
2022-10-11T17:22:31.717Z,102510.84
2022-10-11T17:25:01.455Z,102509.09
2022-10-11T17:27:30.722Z,102507.53
2022-10-11T17:29:58.719Z,102516.88
2022-10-11T17:32:26.697Z,102510.09
2022-10-11T17:34:55.275Z,102508.41
2022-10-11T17:37:23.235Z,102511.44
2022-10-11T17:39:51.086Z,102510.66
2022-10-11T17:42:18.971Z,102510.84
2022-10-11T17:44:48.380Z,102511.31
2022-10-11T17:47:16.353Z,102516.88
2022-10-11T17:49:44.312Z,102509.69
2022-10-11T17:52:12.204Z,102514.63
2022-10-11T17:54:40.470Z,102507.69
2022-10-11T17:57:08.344Z,102512.16
2022-10-11T17:59:36.401Z,102514.06
2022-10-11T18:02:05.789Z,102514.16
2022-10-11T18:04:33.901Z,102515.03
2022-10-11T18:07:02.048Z,102516.75
2022-10-11T18:09:30.034Z,102505.56
2022-10-11T18:11:57.904Z,102505.31
2022-10-11T18:14:25.953Z,102515.84
2022-10-11T18:16:53.838Z,102511.09
2022-10-11T18:19:23.127Z,102507.31
2022-10-11T18:21:51.188Z,102507.06
2022-10-11T18:24:19.177Z,102508.94
2022-10-11T18:26:47.401Z,102509.75
2022-10-11T18:29:15.570Z,102517.00
2022-10-11T18:31:43.846Z,102511.72
2022-10-11T18:34:13.891Z,102515.13
2022-10-11T18:36:43.401Z,102507.50
2022-10-11T18:39:14.470Z,102513.75
2022-10-11T18:41:44.755Z,102517.63
2022-10-11T18:44:15.292Z,102517.88
2022-10-11T18:46:43.519Z,102511.78
2022-10-11T18:49:11.569Z,102514.13
2022-10-11T18:51:41.299Z,102509.06
2022-10-11T18:54:16.749Z,102509.19
2022-10-11T18:56:48.142Z,102508.47
2022-10-11T18:59:16.957Z,102515.19
2022-10-11T19:01:46.194Z,102517.44
2022-10-11T19:04:16.972Z,102510.81
2022-10-11T19:06:47.757Z,102513.81
2022-10-11T19:09:21.779Z,102514.06
2022-10-11T19:11:51.125Z,102519.63
2022-10-11T19:14:21.190Z,102515.31
2022-10-11T19:16:51.606Z,102513.78
2022-10-11T19:19:21.544Z,102515.13
2022-10-11T19:21:49.577Z,102517.97
2022-10-11T19:24:20.866Z,102524.22
2022-10-11T19:26:49.204Z,102518.50
2022-10-11T19:29:19.890Z,102519.63
2022-10-11T19:31:50.033Z,102521.56
2022-10-11T19:34:18.109Z,102518.19
2022-10-11T19:36:46.158Z,102512.13
2022-10-11T19:39:16.095Z,102514.06
2022-10-11T19:41:45.923Z,102522.25
2022-10-11T19:44:14.917Z,102519.59
2022-10-11T19:46:51.963Z,102515.41
2022-10-11T19:49:22.763Z,102519.09
2022-10-11T19:51:51.480Z,102520.03
2022-10-11T19:54:20.001Z,102513.84
2022-10-11T19:56:49.360Z,102516.91
2022-10-11T19:59:17.684Z,102514.47
2022-10-11T20:01:52.001Z,102510.19
2022-10-11T20:04:51.121Z,102516.75
2022-10-11T20:07:08.531Z,102515.13
2022-10-11T20:09:36.757Z,102512.53
2022-10-11T20:12:06.797Z,102520.00
2022-10-11T20:14:35.685Z,102520.88
2022-10-11T20:17:04.071Z,102521.88
2022-10-11T20:19:32.115Z,102513.09
2022-10-11T20:22:00.713Z,102506.94
2022-10-11T20:24:32.960Z,102515.97
2022-10-11T20:27:01.918Z,102518.75
2022-10-11T20:29:31.240Z,102510.84
2022-10-11T20:32:00.045Z,102515.56
2022-10-11T20:34:28.745Z,102512.97
2022-10-11T20:36:56.750Z,102514.91
2022-10-11T20:39:24.972Z,102510.38
2022-10-11T20:41:52.813Z,102524.72
2022-10-11T20:44:20.717Z,102521.31
2022-10-11T20:46:50.112Z,102514.91
2022-10-11T20:49:19.847Z,102522.44
2022-10-11T20:51:47.774Z,102522.44
2022-10-11T20:54:17.351Z,102518.19
2022-10-11T20:56:45.198Z,102519.97
2022-10-11T20:59:13.038Z,102517.53
2022-10-11T21:01:42.290Z,102519.59
2022-10-11T21:04:19.021Z,102520.81
2022-10-11T21:06:47.949Z,102525.31
2022-10-11T21:09:17.020Z,102526.06
2022-10-11T21:11:45.235Z,102522.56
2022-10-11T21:14:13.157Z,102518.13
2022-10-11T21:16:41.010Z,102530.97
2022-10-11T21:19:09.321Z,102529.88
2022-10-11T21:21:38.721Z,102535.56
2022-10-11T21:24:07.059Z,102534.91
2022-10-11T21:26:35.257Z,102538.63
2022-10-11T21:29:04.236Z,102539.56
2022-10-11T21:31:34.407Z,102543.41
2022-10-11T21:34:02.739Z,102545.13
2022-10-11T21:36:30.651Z,102540.75
2022-10-11T21:38:59.953Z,102541.78
2022-10-11T21:41:30.246Z,102543.56
2022-10-11T21:43:59.061Z,102539.25
2022-10-11T21:49:17.538Z,102541.31
2022-10-11T21:51:45.466Z,102537.75
2022-10-11T21:54:14.675Z,102541.41
2022-10-11T21:56:42.824Z,102539.75
2022-10-11T21:59:12.332Z,102540.03
2022-10-11T22:01:40.828Z,102534.78
2022-10-11T22:04:09.375Z,102539.97
2022-10-11T22:06:37.344Z,102536.53
2022-10-11T22:09:06.570Z,102538.38
2022-10-11T22:11:36.371Z,102534.91
2022-10-11T22:14:05.017Z,102539.44
2022-10-11T22:16:34.252Z,102530.72
2022-10-11T22:19:02.329Z,102528.16
2022-10-11T22:21:30.155Z,102536.28
2022-10-11T22:23:57.980Z,102532.69
2022-10-11T22:26:29.912Z,102543.41
2022-10-11T22:28:59.900Z,102539.69
2022-10-11T22:31:29.375Z,102534.34
2022-10-11T22:33:58.486Z,102534.59
2022-10-11T22:36:27.038Z,102540.84
2022-10-11T22:38:55.511Z,102539.25
2022-10-11T22:41:23.613Z,102537.31
2022-10-11T22:43:51.489Z,102537.38
2022-10-11T22:46:20.867Z,102534.09
2022-10-11T22:48:48.658Z,102543.88
2022-10-11T22:51:16.822Z,102541.28
2022-10-11T22:53:44.880Z,102549.31
2022-10-11T22:56:12.703Z,102548.56
2022-10-11T22:58:40.564Z,102545.72
2022-10-11T23:01:09.394Z,102543.00
2022-10-11T23:03:38.884Z,102544.66
2022-10-11T23:06:07.298Z,102540.50
2022-10-11T23:08:35.240Z,102546.75
2022-10-11T23:11:07.074Z,102545.84
2022-10-11T23:13:34.987Z,102553.03
2022-10-11T23:16:07.207Z,102554.00
2022-10-11T23:18:35.133Z,102550.47
2022-10-11T23:21:05.023Z,102559.41
2022-10-11T23:23:33.037Z,102557.13
2022-10-11T23:26:05.627Z,102561.63
2022-10-11T23:28:33.677Z,102558.03
2022-10-11T23:31:01.685Z,102566.22
2022-10-11T23:33:30.342Z,102562.91
2022-10-11T23:35:58.375Z,102565.53
2022-10-11T23:38:27.596Z,102567.28
2022-10-11T23:40:55.571Z,102568.13
2022-10-11T23:43:24.862Z,102566.34
2022-10-11T23:45:54.931Z,102563.75
2022-10-11T23:48:22.998Z,102556.81
2022-10-11T23:50:50.963Z,102563.22
2022-10-11T23:53:19.001Z,102557.25
2022-10-11T23:55:48.543Z,102564.38
2022-10-11T23:58:16.544Z,102567.06
